sensor_id;sensor_type;location;lat;lon;timestamp;P1;durP1;ratioP1;P2;durP2;ratioP2
72060;SDS011;59925;52.136;5.420;2023-11-18T00:01:49;27.92;;;13.35;;
72060;SDS011;59925;52.136;5.420;2023-11-18T00:04:16;30.83;;;14.70;;
72060;SDS011;59925;52.136;5.420;2023-11-18T00:06:42;37.57;;;15.70;;
72060;SDS011;59925;52.136;5.420;2023-11-18T00:09:12;31.60;;;14.05;;
72060;SDS011;59925;52.136;5.420;2023-11-18T00:11:40;37.00;;;15.30;;
72060;SDS011;59925;52.136;5.420;2023-11-18T00:14:07;32.65;;;14.18;;
72060;SDS011;59925;52.136;5.420;2023-11-18T00:16:33;28.67;;;13.68;;
72060;SDS011;59925;52.136;5.420;2023-11-18T00:19:00;29.90;;;14.30;;
72060;SDS011;59925;52.136;5.420;2023-11-18T00:21:27;37.05;;;16.38;;
72060;SDS011;59925;52.136;5.420;2023-11-18T00:23:54;30.73;;;13.88;;
72060;SDS011;59925;52.136;5.420;2023-11-18T00:26:22;33.72;;;14.48;;
72060;SDS011;59925;52.136;5.420;2023-11-18T00:28:48;27.45;;;13.88;;
72060;SDS011;59925;52.136;5.420;2023-11-18T00:31:15;31.17;;;14.70;;
72060;SDS011;59925;52.136;5.420;2023-11-18T00:33:42;30.77;;;14.55;;
72060;SDS011;59925;52.136;5.420;2023-11-18T00:36:08;27.48;;;13.13;;
72060;SDS011;59925;52.136;5.420;2023-11-18T00:38:35;33.40;;;14.95;;
72060;SDS011;59925;52.136;5.420;2023-11-18T00:41:01;31.67;;;14.35;;
72060;SDS011;59925;52.136;5.420;2023-11-18T00:43:28;32.47;;;14.73;;
72060;SDS011;59925;52.136;5.420;2023-11-18T00:45:55;30.45;;;13.65;;
72060;SDS011;59925;52.136;5.420;2023-11-18T00:48:23;30.35;;;12.18;;
72060;SDS011;59925;52.136;5.420;2023-11-18T00:50:50;30.08;;;13.73;;
72060;SDS011;59925;52.136;5.420;2023-11-18T00:53:18;27.13;;;12.80;;
72060;SDS011;59925;52.136;5.420;2023-11-18T00:55:45;24.67;;;12.43;;
72060;SDS011;59925;52.136;5.420;2023-11-18T00:58:11;26.77;;;12.25;;
72060;SDS011;59925;52.136;5.420;2023-11-18T01:00:38;28.65;;;12.68;;
72060;SDS011;59925;52.136;5.420;2023-11-18T01:03:05;26.77;;;12.45;;
72060;SDS011;59925;52.136;5.420;2023-11-18T01:05:31;21.00;;;10.40;;
72060;SDS011;59925;52.136;5.420;2023-11-18T01:07:58;23.93;;;11.07;;
72060;SDS011;59925;52.136;5.420;2023-11-18T01:10:24;24.73;;;10.85;;
72060;SDS011;59925;52.136;5.420;2023-11-18T01:12:51;30.17;;;12.98;;
72060;SDS011;59925;52.136;5.420;2023-11-18T01:15:17;28.45;;;13.30;;
72060;SDS011;59925;52.136;5.420;2023-11-18T01:17:44;29.85;;;13.30;;
72060;SDS011;59925;52.136;5.420;2023-11-18T01:20:10;31.60;;;13.03;;
72060;SDS011;59925;52.136;5.420;2023-11-18T01:22:38;29.35;;;13.50;;
72060;SDS011;59925;52.136;5.420;2023-11-18T01:25:05;32.78;;;14.07;;
72060;SDS011;59925;52.136;5.420;2023-11-18T01:27:32;34.10;;;15.18;;
72060;SDS011;59925;52.136;5.420;2023-11-18T01:30:02;31.67;;;14.52;;
72060;SDS011;59925;52.136;5.420;2023-11-18T01:32:30;32.63;;;14.00;;
72060;SDS011;59925;52.136;5.420;2023-11-18T01:34:57;34.30;;;15.20;;
72060;SDS011;59925;52.136;5.420;2023-11-18T01:37:24;32.47;;;14.63;;
72060;SDS011;59925;52.136;5.420;2023-11-18T01:39:50;33.67;;;15.07;;
72060;SDS011;59925;52.136;5.420;2023-11-18T01:42:17;31.95;;;14.45;;
72060;SDS011;59925;52.136;5.420;2023-11-18T01:44:44;29.03;;;14.33;;
72060;SDS011;59925;52.136;5.420;2023-11-18T01:47:10;33.40;;;14.80;;
72060;SDS011;59925;52.136;5.420;2023-11-18T01:49:38;29.75;;;14.93;;
72060;SDS011;59925;52.136;5.420;2023-11-18T01:52:07;33.13;;;13.90;;
72060;SDS011;59925;52.136;5.420;2023-11-18T01:54:35;29.98;;;14.25;;
72060;SDS011;59925;52.136;5.420;2023-11-18T01:57:04;30.10;;;14.03;;
72060;SDS011;59925;52.136;5.420;2023-11-18T01:59:32;33.42;;;13.20;;
72060;SDS011;59925;52.136;5.420;2023-11-18T02:02:00;30.73;;;14.57;;
72060;SDS011;59925;52.136;5.420;2023-11-18T02:04:28;29.88;;;14.13;;
72060;SDS011;59925;52.136;5.420;2023-11-18T02:06:56;30.85;;;13.85;;
72060;SDS011;59925;52.136;5.420;2023-11-18T02:09:24;33.23;;;14.63;;
72060;SDS011;59925;52.136;5.420;2023-11-18T02:14:30;27.48;;;13.57;;
72060;SDS011;59925;52.136;5.420;2023-11-18T02:16:59;31.88;;;14.57;;
72060;SDS011;59925;52.136;5.420;2023-11-18T02:19:28;33.95;;;14.93;;
72060;SDS011;59925;52.136;5.420;2023-11-18T02:21:56;29.13;;;13.10;;
72060;SDS011;59925;52.136;5.420;2023-11-18T02:24:24;34.75;;;14.60;;
72060;SDS011;59925;52.136;5.420;2023-11-18T02:26:51;30.98;;;13.65;;
72060;SDS011;59925;52.136;5.420;2023-11-18T02:29:18;29.63;;;14.15;;
72060;SDS011;59925;52.136;5.420;2023-11-18T02:31:44;35.95;;;14.68;;
72060;SDS011;59925;52.136;5.420;2023-11-18T02:34:14;32.53;;;14.07;;
72060;SDS011;59925;52.136;5.420;2023-11-18T02:36:46;34.30;;;14.38;;
72060;SDS011;59925;52.136;5.420;2023-11-18T02:39:19;32.08;;;13.52;;
72060;SDS011;59925;52.136;5.420;2023-11-18T02:41:48;27.70;;;13.13;;
72060;SDS011;59925;52.136;5.420;2023-11-18T02:44:18;31.70;;;13.90;;
72060;SDS011;59925;52.136;5.420;2023-11-18T02:46:49;32.37;;;14.60;;
72060;SDS011;59925;52.136;5.420;2023-11-18T02:49:16;28.45;;;14.35;;
72060;SDS011;59925;52.136;5.420;2023-11-18T02:51:43;28.85;;;14.05;;
72060;SDS011;59925;52.136;5.420;2023-11-18T02:54:13;30.90;;;14.55;;
72060;SDS011;59925;52.136;5.420;2023-11-18T02:56:42;30.98;;;14.65;;
72060;SDS011;59925;52.136;5.420;2023-11-18T02:59:09;35.37;;;16.03;;
72060;SDS011;59925;52.136;5.420;2023-11-18T03:01:36;31.60;;;15.60;;
72060;SDS011;59925;52.136;5.420;2023-11-18T03:04:05;33.30;;;15.23;;
72060;SDS011;59925;52.136;5.420;2023-11-18T03:06:32;34.53;;;15.32;;
72060;SDS011;59925;52.136;5.420;2023-11-18T03:08:58;34.63;;;15.50;;
72060;SDS011;59925;52.136;5.420;2023-11-18T03:11:25;33.63;;;16.00;;
72060;SDS011;59925;52.136;5.420;2023-11-18T03:13:51;34.22;;;15.65;;
72060;SDS011;59925;52.136;5.420;2023-11-18T03:16:18;32.15;;;15.38;;
72060;SDS011;59925;52.136;5.420;2023-11-18T03:18:44;34.92;;;15.68;;
72060;SDS011;59925;52.136;5.420;2023-11-18T03:21:11;34.50;;;15.13;;
72060;SDS011;59925;52.136;5.420;2023-11-18T03:23:39;34.07;;;16.03;;
72060;SDS011;59925;52.136;5.420;2023-11-18T03:26:09;34.53;;;16.33;;
72060;SDS011;59925;52.136;5.420;2023-11-18T03:28:38;32.30;;;14.45;;
72060;SDS011;59925;52.136;5.420;2023-11-18T03:31:06;38.17;;;17.60;;
72060;SDS011;59925;52.136;5.420;2023-11-18T03:33:33;38.60;;;16.77;;
72060;SDS011;59925;52.136;5.420;2023-11-18T03:35:59;33.90;;;15.30;;
72060;SDS011;59925;52.136;5.420;2023-11-18T03:38:26;31.73;;;15.02;;
72060;SDS011;59925;52.136;5.420;2023-11-18T03:40:54;33.20;;;14.88;;
72060;SDS011;59925;52.136;5.420;2023-11-18T03:43:23;29.85;;;14.90;;
72060;SDS011;59925;52.136;5.420;2023-11-18T03:45:49;30.55;;;15.15;;
72060;SDS011;59925;52.136;5.420;2023-11-18T03:48:15;34.07;;;14.70;;
72060;SDS011;59925;52.136;5.420;2023-11-18T03:50:44;36.65;;;15.93;;
72060;SDS011;59925;52.136;5.420;2023-11-18T03:53:11;31.20;;;15.52;;
72060;SDS011;59925;52.136;5.420;2023-11-18T03:55:37;32.38;;;15.15;;
72060;SDS011;59925;52.136;5.420;2023-11-18T03:58:04;33.17;;;15.80;;
72060;SDS011;59925;52.136;5.420;2023-11-18T04:00:30;28.93;;;13.70;;
72060;SDS011;59925;52.136;5.420;2023-11-18T04:02:57;34.25;;;15.05;;
72060;SDS011;59925;52.136;5.420;2023-11-18T04:05:25;31.02;;;14.35;;
72060;SDS011;59925;52.136;5.420;2023-11-18T04:07:51;29.55;;;14.10;;
72060;SDS011;59925;52.136;5.420;2023-11-18T04:10:18;31.65;;;14.38;;
72060;SDS011;59925;52.136;5.420;2023-11-18T04:12:45;27.20;;;14.23;;
72060;SDS011;59925;52.136;5.420;2023-11-18T04:15:14;31.73;;;14.30;;
72060;SDS011;59925;52.136;5.420;2023-11-18T04:17:43;32.97;;;15.65;;
72060;SDS011;59925;52.136;5.420;2023-11-18T04:20:10;35.72;;;14.57;;
72060;SDS011;59925;52.136;5.420;2023-11-18T04:22:40;31.73;;;15.02;;
72060;SDS011;59925;52.136;5.420;2023-11-18T04:25:08;28.53;;;14.83;;
72060;SDS011;59925;52.136;5.420;2023-11-18T04:27:37;28.50;;;14.10;;
72060;SDS011;59925;52.136;5.420;2023-11-18T04:30:04;32.75;;;15.25;;
72060;SDS011;59925;52.136;5.420;2023-11-18T04:32:31;30.00;;;15.35;;
72060;SDS011;59925;52.136;5.420;2023-11-18T04:34:59;29.35;;;14.65;;
72060;SDS011;59925;52.136;5.420;2023-11-18T04:37:33;31.43;;;14.20;;
72060;SDS011;59925;52.136;5.420;2023-11-18T04:40:03;31.15;;;14.82;;
72060;SDS011;59925;52.136;5.420;2023-11-18T04:42:32;28.20;;;14.52;;
72060;SDS011;59925;52.136;5.420;2023-11-18T04:44:58;29.25;;;14.48;;
72060;SDS011;59925;52.136;5.420;2023-11-18T04:47:25;30.25;;;14.85;;
72060;SDS011;59925;52.136;5.420;2023-11-18T04:49:53;31.57;;;15.20;;
72060;SDS011;59925;52.136;5.420;2023-11-18T04:52:20;33.00;;;15.02;;
72060;SDS011;59925;52.136;5.420;2023-11-18T04:54:46;29.58;;;14.20;;
72060;SDS011;59925;52.136;5.420;2023-11-18T04:57:14;29.58;;;14.07;;
72060;SDS011;59925;52.136;5.420;2023-11-18T04:59:43;34.80;;;14.55;;
72060;SDS011;59925;52.136;5.420;2023-11-18T05:02:10;27.43;;;14.17;;
72060;SDS011;59925;52.136;5.420;2023-11-18T05:04:36;27.33;;;14.93;;
72060;SDS011;59925;52.136;5.420;2023-11-18T05:07:03;28.08;;;14.35;;
72060;SDS011;59925;52.136;5.420;2023-11-18T05:09:30;29.02;;;15.07;;
72060;SDS011;59925;52.136;5.420;2023-11-18T05:11:57;28.90;;;13.50;;
72060;SDS011;59925;52.136;5.420;2023-11-18T05:14:24;31.37;;;13.47;;
72060;SDS011;59925;52.136;5.420;2023-11-18T05:16:52;30.90;;;14.00;;
72060;SDS011;59925;52.136;5.420;2023-11-18T05:19:20;31.13;;;15.30;;
72060;SDS011;59925;52.136;5.420;2023-11-18T05:21:46;32.60;;;14.98;;
72060;SDS011;59925;52.136;5.420;2023-11-18T05:24:16;32.45;;;15.00;;
72060;SDS011;59925;52.136;5.420;2023-11-18T05:26:42;28.03;;;14.87;;
72060;SDS011;59925;52.136;5.420;2023-11-18T05:29:09;30.60;;;14.50;;
72060;SDS011;59925;52.136;5.420;2023-11-18T05:31:36;31.08;;;15.65;;
72060;SDS011;59925;52.136;5.420;2023-11-18T05:34:03;27.73;;;14.02;;
72060;SDS011;59925;52.136;5.420;2023-11-18T05:36:31;31.05;;;14.55;;
72060;SDS011;59925;52.136;5.420;2023-11-18T05:39:03;28.60;;;15.10;;
72060;SDS011;59925;52.136;5.420;2023-11-18T05:41:31;26.40;;;13.90;;
72060;SDS011;59925;52.136;5.420;2023-11-18T05:43:58;32.72;;;15.02;;
72060;SDS011;59925;52.136;5.420;2023-11-18T05:46:25;29.55;;;14.95;;
72060;SDS011;59925;52.136;5.420;2023-11-18T05:48:54;28.73;;;14.68;;
72060;SDS011;59925;52.136;5.420;2023-11-18T05:51:25;26.80;;;13.80;;
72060;SDS011;59925;52.136;5.420;2023-11-18T05:53:53;25.77;;;12.63;;
72060;SDS011;59925;52.136;5.420;2023-11-18T05:56:19;29.98;;;13.75;;
72060;SDS011;59925;52.136;5.420;2023-11-18T05:58:49;32.83;;;14.50;;
72060;SDS011;59925;52.136;5.420;2023-11-18T06:01:15;30.52;;;13.85;;
72060;SDS011;59925;52.136;5.420;2023-11-18T06:03:43;30.47;;;14.47;;
72060;SDS011;59925;52.136;5.420;2023-11-18T06:06:11;25.52;;;13.25;;
72060;SDS011;59925;52.136;5.420;2023-11-18T06:08:40;29.45;;;14.20;;
72060;SDS011;59925;52.136;5.420;2023-11-18T06:11:10;28.52;;;13.40;;
72060;SDS011;59925;52.136;5.420;2023-11-18T06:13:44;24.45;;;12.23;;
72060;SDS011;59925;52.136;5.420;2023-11-18T06:16:15;29.57;;;13.00;;
72060;SDS011;59925;52.136;5.420;2023-11-18T06:18:44;28.80;;;13.25;;
72060;SDS011;59925;52.136;5.420;2023-11-18T06:21:11;24.98;;;12.40;;
72060;SDS011;59925;52.136;5.420;2023-11-18T06:23:42;33.53;;;12.85;;
72060;SDS011;59925;52.136;5.420;2023-11-18T06:26:09;27.48;;;13.07;;
72060;SDS011;59925;52.136;5.420;2023-11-18T06:28:39;24.43;;;11.73;;
72060;SDS011;59925;52.136;5.420;2023-11-18T06:31:07;23.70;;;11.63;;
72060;SDS011;59925;52.136;5.420;2023-11-18T06:36:06;22.23;;;10.55;;
72060;SDS011;59925;52.136;5.420;2023-11-18T06:38:33;24.58;;;12.13;;
72060;SDS011;59925;52.136;5.420;2023-11-18T06:41:00;22.60;;;11.40;;
72060;SDS011;59925;52.136;5.420;2023-11-18T06:43:34;23.40;;;10.95;;
72060;SDS011;59925;52.136;5.420;2023-11-18T06:46:18;23.08;;;11.05;;
72060;SDS011;59925;52.136;5.420;2023-11-18T06:48:48;28.67;;;11.55;;
72060;SDS011;59925;52.136;5.420;2023-11-18T06:51:16;29.40;;;11.68;;
72060;SDS011;59925;52.136;5.420;2023-11-18T06:53:42;21.17;;;10.67;;
72060;SDS011;59925;52.136;5.420;2023-11-18T06:56:12;22.70;;;11.00;;
72060;SDS011;59925;52.136;5.420;2023-11-18T06:58:39;24.60;;;11.18;;
72060;SDS011;59925;52.136;5.420;2023-11-18T07:01:06;21.55;;;10.38;;
72060;SDS011;59925;52.136;5.420;2023-11-18T07:03:33;20.60;;;9.70;;
72060;SDS011;59925;52.136;5.420;2023-11-18T07:05:59;23.43;;;10.73;;
72060;SDS011;59925;52.136;5.420;2023-11-18T07:08:26;25.33;;;10.98;;
72060;SDS011;59925;52.136;5.420;2023-11-18T07:10:53;21.80;;;10.10;;
72060;SDS011;59925;52.136;5.420;2023-11-18T07:13:19;18.88;;;9.95;;
72060;SDS011;59925;52.136;5.420;2023-11-18T07:15:52;22.70;;;10.43;;
72060;SDS011;59925;52.136;5.420;2023-11-18T07:18:20;21.50;;;9.57;;
72060;SDS011;59925;52.136;5.420;2023-11-18T07:20:48;21.45;;;10.32;;
72060;SDS011;59925;52.136;5.420;2023-11-18T07:23:20;27.48;;;11.18;;
72060;SDS011;59925;52.136;5.420;2023-11-18T07:25:47;26.10;;;10.75;;
72060;SDS011;59925;52.136;5.420;2023-11-18T07:28:13;20.80;;;10.38;;
72060;SDS011;59925;52.136;5.420;2023-11-18T07:30:43;20.73;;;10.43;;
72060;SDS011;59925;52.136;5.420;2023-11-18T07:33:16;20.48;;;10.20;;
72060;SDS011;59925;52.136;5.420;2023-11-18T07:35:43;19.55;;;9.57;;
72060;SDS011;59925;52.136;5.420;2023-11-18T07:38:09;18.40;;;9.80;;
72060;SDS011;59925;52.136;5.420;2023-11-18T07:40:37;20.30;;;10.40;;
72060;SDS011;59925;52.136;5.420;2023-11-18T07:43:04;27.07;;;10.40;;
72060;SDS011;59925;52.136;5.420;2023-11-18T07:45:36;23.40;;;10.55;;
72060;SDS011;59925;52.136;5.420;2023-11-18T07:48:06;20.83;;;10.13;;
72060;SDS011;59925;52.136;5.420;2023-11-18T07:50:35;23.05;;;9.98;;
72060;SDS011;59925;52.136;5.420;2023-11-18T07:53:02;22.27;;;10.10;;
72060;SDS011;59925;52.136;5.420;2023-11-18T07:55:29;22.50;;;10.63;;
72060;SDS011;59925;52.136;5.420;2023-11-18T07:57:56;21.10;;;10.13;;
72060;SDS011;59925;52.136;5.420;2023-11-18T08:00:22;20.23;;;10.82;;
72060;SDS011;59925;52.136;5.420;2023-11-18T08:02:50;24.65;;;11.27;;
72060;SDS011;59925;52.136;5.420;2023-11-18T08:05:20;23.67;;;10.65;;
72060;SDS011;59925;52.136;5.420;2023-11-18T08:07:49;20.47;;;10.13;;
72060;SDS011;59925;52.136;5.420;2023-11-18T08:10:16;21.20;;;11.02;;
72060;SDS011;59925;52.136;5.420;2023-11-18T08:12:45;25.00;;;11.27;;
72060;SDS011;59925;52.136;5.420;2023-11-18T08:15:13;23.58;;;10.88;;
72060;SDS011;59925;52.136;5.420;2023-11-18T08:17:40;20.50;;;10.05;;
72060;SDS011;59925;52.136;5.420;2023-11-18T08:20:07;25.97;;;10.60;;
72060;SDS011;59925;52.136;5.420;2023-11-18T08:22:43;23.65;;;9.68;;
72060;SDS011;59925;52.136;5.420;2023-11-18T08:25:10;23.70;;;10.32;;
72060;SDS011;59925;52.136;5.420;2023-11-18T08:27:39;20.25;;;10.10;;
72060;SDS011;59925;52.136;5.420;2023-11-18T08:30:07;18.20;;;9.52;;
72060;SDS011;59925;52.136;5.420;2023-11-18T08:32:38;17.80;;;9.17;;
72060;SDS011;59925;52.136;5.420;2023-11-18T08:35:06;16.95;;;9.43;;
72060;SDS011;59925;52.136;5.420;2023-11-18T08:37:36;21.52;;;10.02;;
72060;SDS011;59925;52.136;5.420;2023-11-18T08:40:03;16.23;;;8.75;;
72060;SDS011;59925;52.136;5.420;2023-11-18T08:42:47;16.95;;;9.30;;
72060;SDS011;59925;52.136;5.420;2023-11-18T08:45:20;16.63;;;8.87;;
72060;SDS011;59925;52.136;5.420;2023-11-18T08:47:48;17.63;;;8.65;;
72060;SDS011;59925;52.136;5.420;2023-11-18T08:50:15;18.23;;;8.18;;
72060;SDS011;59925;52.136;5.420;2023-11-18T08:52:43;16.85;;;8.55;;
72060;SDS011;59925;52.136;5.420;2023-11-18T08:55:14;16.23;;;9.18;;
72060;SDS011;59925;52.136;5.420;2023-11-18T08:57:44;15.73;;;8.10;;
72060;SDS011;59925;52.136;5.420;2023-11-18T09:00:30;16.63;;;7.53;;
72060;SDS011;59925;52.136;5.420;2023-11-18T09:03:22;17.33;;;8.73;;
72060;SDS011;59925;52.136;5.420;2023-11-18T09:06:04;15.68;;;7.68;;
72060;SDS011;59925;52.136;5.420;2023-11-18T09:11:02;14.83;;;7.60;;
72060;SDS011;59925;52.136;5.420;2023-11-18T09:13:33;12.60;;;6.63;;
72060;SDS011;59925;52.136;5.420;2023-11-18T09:16:04;13.88;;;7.05;;
72060;SDS011;59925;52.136;5.420;2023-11-18T09:18:36;18.02;;;6.65;;
72060;SDS011;59925;52.136;5.420;2023-11-18T09:21:08;19.35;;;7.35;;
72060;SDS011;59925;52.136;5.420;2023-11-18T09:23:42;14.70;;;7.47;;
72060;SDS011;59925;52.136;5.420;2023-11-18T09:26:09;18.58;;;7.30;;
72060;SDS011;59925;52.136;5.420;2023-11-18T09:28:37;14.80;;;6.88;;
72060;SDS011;59925;52.136;5.420;2023-11-18T09:31:04;15.13;;;7.18;;
72060;SDS011;59925;52.136;5.420;2023-11-18T09:33:32;13.05;;;6.68;;
72060;SDS011;59925;52.136;5.420;2023-11-18T09:36:04;16.80;;;8.27;;
72060;SDS011;59925;52.136;5.420;2023-11-18T09:38:37;12.15;;;5.65;;
72060;SDS011;59925;52.136;5.420;2023-11-18T09:41:10;10.23;;;6.43;;
72060;SDS011;59925;52.136;5.420;2023-11-18T09:43:41;12.77;;;7.03;;
72060;SDS011;59925;52.136;5.420;2023-11-18T09:46:28;14.32;;;6.00;;
72060;SDS011;59925;52.136;5.420;2023-11-18T09:51:28;12.93;;;6.07;;
72060;SDS011;59925;52.136;5.420;2023-11-18T09:54:04;12.20;;;6.20;;
72060;SDS011;59925;52.136;5.420;2023-11-18T09:56:45;12.48;;;5.57;;
72060;SDS011;59925;52.136;5.420;2023-11-18T10:02:11;15.00;;;6.33;;
72060;SDS011;59925;52.136;5.420;2023-11-18T10:04:38;14.40;;;5.82;;
72060;SDS011;59925;52.136;5.420;2023-11-18T10:07:06;8.40;;;5.10;;
72060;SDS011;59925;52.136;5.420;2023-11-18T10:09:37;14.05;;;6.22;;
72060;SDS011;59925;52.136;5.420;2023-11-18T10:12:08;13.10;;;5.50;;
72060;SDS011;59925;52.136;5.420;2023-11-18T10:14:40;16.37;;;6.20;;
72060;SDS011;59925;52.136;5.420;2023-11-18T10:17:10;11.02;;;5.35;;
72060;SDS011;59925;52.136;5.420;2023-11-18T10:22:29;14.82;;;6.78;;
72060;SDS011;59925;52.136;5.420;2023-11-18T10:24:58;9.85;;;5.15;;
72060;SDS011;59925;52.136;5.420;2023-11-18T10:27:27;10.40;;;4.77;;
72060;SDS011;59925;52.136;5.420;2023-11-18T10:29:55;10.50;;;5.60;;
72060;SDS011;59925;52.136;5.420;2023-11-18T10:32:22;12.50;;;5.38;;
72060;SDS011;59925;52.136;5.420;2023-11-18T10:34:55;12.45;;;5.72;;
72060;SDS011;59925;52.136;5.420;2023-11-18T10:37:22;12.50;;;5.22;;
72060;SDS011;59925;52.136;5.420;2023-11-18T10:39:49;12.23;;;5.40;;
72060;SDS011;59925;52.136;5.420;2023-11-18T10:42:18;12.50;;;5.43;;
72060;SDS011;59925;52.136;5.420;2023-11-18T10:44:55;10.73;;;5.40;;
72060;SDS011;59925;52.136;5.420;2023-11-18T10:47:25;11.70;;;5.40;;
72060;SDS011;59925;52.136;5.420;2023-11-18T10:49:52;14.63;;;6.18;;
72060;SDS011;59925;52.136;5.420;2023-11-18T10:52:22;13.03;;;5.63;;
72060;SDS011;59925;52.136;5.420;2023-11-18T10:54:52;11.63;;;5.03;;
72060;SDS011;59925;52.136;5.420;2023-11-18T10:57:22;11.02;;;5.30;;
72060;SDS011;59925;52.136;5.420;2023-11-18T11:00:03;13.50;;;5.43;;
72060;SDS011;59925;52.136;5.420;2023-11-18T11:02:39;15.63;;;5.10;;
72060;SDS011;59925;52.136;5.420;2023-11-18T11:05:09;14.90;;;5.13;;
72060;SDS011;59925;52.136;5.420;2023-11-18T11:07:53;11.18;;;4.85;;
72060;SDS011;59925;52.136;5.420;2023-11-18T11:10:21;11.93;;;5.57;;
72060;SDS011;59925;52.136;5.420;2023-11-18T11:12:55;10.90;;;5.07;;
72060;SDS011;59925;52.136;5.420;2023-11-18T11:15:31;8.45;;;4.65;;
72060;SDS011;59925;52.136;5.420;2023-11-18T11:18:19;11.97;;;4.97;;
72060;SDS011;59925;52.136;5.420;2023-11-18T11:21:06;14.80;;;5.03;;
72060;SDS011;59925;52.136;5.420;2023-11-18T11:26:28;9.30;;;4.57;;
72060;SDS011;59925;52.136;5.420;2023-11-18T11:31:39;11.63;;;4.90;;
72060;SDS011;59925;52.136;5.420;2023-11-18T11:34:15;8.90;;;4.32;;
72060;SDS011;59925;52.136;5.420;2023-11-18T11:36:46;10.57;;;5.13;;
72060;SDS011;59925;52.136;5.420;2023-11-18T11:39:17;13.75;;;4.90;;
72060;SDS011;59925;52.136;5.420;2023-11-18T11:41:52;7.95;;;4.30;;
72060;SDS011;59925;52.136;5.420;2023-11-18T11:44:23;11.83;;;5.33;;
72060;SDS011;59925;52.136;5.420;2023-11-18T11:46:58;11.65;;;4.25;;
72060;SDS011;59925;52.136;5.420;2023-11-18T11:49:27;12.90;;;4.50;;
72060;SDS011;59925;52.136;5.420;2023-11-18T11:52:27;9.40;;;5.05;;
72060;SDS011;59925;52.136;5.420;2023-11-18T11:55:07;9.43;;;4.40;;
72060;SDS011;59925;52.136;5.420;2023-11-18T11:58:03;15.67;;;4.50;;
72060;SDS011;59925;52.136;5.420;2023-11-18T12:00:32;9.30;;;4.57;;
72060;SDS011;59925;52.136;5.420;2023-11-18T12:03:01;8.48;;;4.10;;
72060;SDS011;59925;52.136;5.420;2023-11-18T12:05:31;9.40;;;4.60;;
72060;SDS011;59925;52.136;5.420;2023-11-18T12:08:00;10.63;;;3.50;;
72060;SDS011;59925;52.136;5.420;2023-11-18T12:10:27;7.87;;;3.93;;
72060;SDS011;59925;52.136;5.420;2023-11-18T12:13:06;7.93;;;3.60;;
72060;SDS011;59925;52.136;5.420;2023-11-18T12:18:30;8.93;;;4.00;;
72060;SDS011;59925;52.136;5.420;2023-11-18T12:21:03;7.57;;;3.10;;
72060;SDS011;59925;52.136;5.420;2023-11-18T12:23:30;11.20;;;4.07;;
72060;SDS011;59925;52.136;5.420;2023-11-18T12:26:01;10.93;;;3.20;;
72060;SDS011;59925;52.136;5.420;2023-11-18T12:28:30;6.03;;;2.70;;
72060;SDS011;59925;52.136;5.420;2023-11-18T12:31:11;5.45;;;2.90;;
72060;SDS011;59925;52.136;5.420;2023-11-18T12:39:09;13.13;;;3.25;;
72060;SDS011;59925;52.136;5.420;2023-11-18T12:41:40;8.48;;;3.00;;
72060;SDS011;59925;52.136;5.420;2023-11-18T12:46:53;5.82;;;2.70;;
72060;SDS011;59925;52.136;5.420;2023-11-18T12:49:24;7.73;;;3.00;;
72060;SDS011;59925;52.136;5.420;2023-11-18T12:51:52;7.10;;;2.83;;
72060;SDS011;59925;52.136;5.420;2023-11-18T12:54:24;7.70;;;3.30;;
72060;SDS011;59925;52.136;5.420;2023-11-18T12:56:56;3.97;;;2.15;;
72060;SDS011;59925;52.136;5.420;2023-11-18T12:59:23;5.50;;;2.10;;
72060;SDS011;59925;52.136;5.420;2023-11-18T13:01:50;5.83;;;2.90;;
72060;SDS011;59925;52.136;5.420;2023-11-18T13:04:20;6.25;;;2.63;;
72060;SDS011;59925;52.136;5.420;2023-11-18T13:06:47;7.45;;;2.35;;
72060;SDS011;59925;52.136;5.420;2023-11-18T13:09:14;7.38;;;2.90;;
72060;SDS011;59925;52.136;5.420;2023-11-18T13:11:52;6.60;;;2.42;;
72060;SDS011;59925;52.136;5.420;2023-11-18T13:14:23;5.50;;;1.90;;
72060;SDS011;59925;52.136;5.420;2023-11-18T13:16:53;7.10;;;3.08;;
72060;SDS011;59925;52.136;5.420;2023-11-18T13:19:26;3.92;;;2.03;;
72060;SDS011;59925;52.136;5.420;2023-11-18T13:22:04;6.30;;;2.25;;
72060;SDS011;59925;52.136;5.420;2023-11-18T13:24:36;4.18;;;2.40;;
72060;SDS011;59925;52.136;5.420;2023-11-18T13:27:10;5.03;;;2.37;;
72060;SDS011;59925;52.136;5.420;2023-11-18T13:29:43;3.88;;;2.25;;
72060;SDS011;59925;52.136;5.420;2023-11-18T13:32:11;5.53;;;1.92;;
72060;SDS011;59925;52.136;5.420;2023-11-18T13:34:39;5.00;;;1.65;;
72060;SDS011;59925;52.136;5.420;2023-11-18T13:37:08;4.03;;;1.70;;
72060;SDS011;59925;52.136;5.420;2023-11-18T13:39:39;8.83;;;2.07;;
72060;SDS011;59925;52.136;5.420;2023-11-18T13:42:18;6.75;;;2.13;;
72060;SDS011;59925;52.136;5.420;2023-11-18T13:44:49;4.95;;;1.75;;
72060;SDS011;59925;52.136;5.420;2023-11-18T13:47:17;2.15;;;1.40;;
72060;SDS011;59925;52.136;5.420;2023-11-18T13:49:44;5.45;;;1.98;;
72060;SDS011;59925;52.136;5.420;2023-11-18T13:52:12;5.50;;;1.70;;
72060;SDS011;59925;52.136;5.420;2023-11-18T13:54:42;4.60;;;2.10;;
72060;SDS011;59925;52.136;5.420;2023-11-18T13:57:11;4.00;;;1.63;;
72060;SDS011;59925;52.136;5.420;2023-11-18T13:59:38;4.40;;;1.42;;
72060;SDS011;59925;52.136;5.420;2023-11-18T14:02:05;3.00;;;1.50;;
72060;SDS011;59925;52.136;5.420;2023-11-18T14:04:33;4.47;;;1.40;;
72060;SDS011;59925;52.136;5.420;2023-11-18T14:07:01;4.63;;;1.60;;
72060;SDS011;59925;52.136;5.420;2023-11-18T14:09:32;4.93;;;1.42;;
72060;SDS011;59925;52.136;5.420;2023-11-18T14:12:08;5.07;;;1.50;;
72060;SDS011;59925;52.136;5.420;2023-11-18T14:14:35;3.25;;;1.15;;
72060;SDS011;59925;52.136;5.420;2023-11-18T14:17:02;2.87;;;0.93;;
72060;SDS011;59925;52.136;5.420;2023-11-18T14:19:28;2.95;;;1.00;;
72060;SDS011;59925;52.136;5.420;2023-11-18T14:21:56;2.60;;;1.60;;
72060;SDS011;59925;52.136;5.420;2023-11-18T14:24:23;2.15;;;1.20;;
72060;SDS011;59925;52.136;5.420;2023-11-18T14:26:54;2.53;;;0.93;;
72060;SDS011;59925;52.136;5.420;2023-11-18T14:29:20;4.70;;;0.90;;
72060;SDS011;59925;52.136;5.420;2023-11-18T14:31:47;2.20;;;0.85;;
72060;SDS011;59925;52.136;5.420;2023-11-18T14:34:13;2.55;;;1.20;;
72060;SDS011;59925;52.136;5.420;2023-11-18T14:36:40;2.47;;;1.00;;
72060;SDS011;59925;52.136;5.420;2023-11-18T14:39:10;3.22;;;1.00;;
72060;SDS011;59925;52.136;5.420;2023-11-18T14:41:39;2.53;;;0.83;;
72060;SDS011;59925;52.136;5.420;2023-11-18T14:44:07;2.30;;;0.70;;
72060;SDS011;59925;52.136;5.420;2023-11-18T14:46:36;2.03;;;0.88;;
72060;SDS011;59925;52.136;5.420;2023-11-18T14:49:07;4.22;;;0.73;;
72060;SDS011;59925;52.136;5.420;2023-11-18T14:51:33;2.95;;;1.00;;
72060;SDS011;59925;52.136;5.420;2023-11-18T14:54:00;1.87;;;1.00;;
72060;SDS011;59925;52.136;5.420;2023-11-18T14:56:27;1.67;;;0.80;;
72060;SDS011;59925;52.136;5.420;2023-11-18T14:58:53;1.63;;;0.80;;
72060;SDS011;59925;52.136;5.420;2023-11-18T15:01:20;2.85;;;0.70;;
72060;SDS011;59925;52.136;5.420;2023-11-18T15:03:47;1.38;;;0.73;;
72060;SDS011;59925;52.136;5.420;2023-11-18T15:06:13;2.30;;;0.83;;
72060;SDS011;59925;52.136;5.420;2023-11-18T15:08:40;1.42;;;0.85;;
72060;SDS011;59925;52.136;5.420;2023-11-18T15:11:11;2.78;;;0.75;;
72060;SDS011;59925;52.136;5.420;2023-11-18T15:13:41;1.30;;;0.80;;
72060;SDS011;59925;52.136;5.420;2023-11-18T15:16:08;1.88;;;1.00;;